Date,TemperatureHighF,TemperatureAvgF,TemperatureLowF,DewpointHighF,DewpointAvgF,DewpointLowF,HumidityHigh,HumidityAvg,HumidityLow,PressureMaxIn,PressureMinIn,WindSpeedMaxMPH,WindSpeedAvgMPH,GustSpeedMaxMPH,PrecipitationSumIn
2013-6-1,68,57,47,55,51,46,96,81,57,30.27,30.08,4,0,7,0.00
2013-6-2,70,59,49,58,51,48,96,78,53,30.09,30.04,10,1,14,0.00
2013-6-3,74,60,48,57,52,46,96,76,52,30.12,30.07,8,1,14,0.00
2013-6-4,81,64,48,62,53,47,96,71,40,30.15,30.02,6,1,9,0.00
2013-6-5,77,64,53,62,55,51,91,75,48,30.09,30.02,8,1,14,0.00
2013-6-6,79,65,51,61,54,50,97,71,43,30.06,29.98,7,1,10,0.00
2013-6-7,66,59,52,57,51,44,93,75,61,30.14,29.99,9,1,15,0.05
2013-6-8,67,58,48,54,49,46,93,74,55,30.18,30.10,9,2,14,0.00
2013-6-9,70,58,49,55,50,44,93,74,48,30.11,30.03,10,2,16,0.00
2013-6-10,71,58,44,55,49,42,95,73,50,30.04,29.87,8,1,13,0.00
2013-6-11,66,57,53,52,48,46,85,71,54,30.09,29.91,9,2,17,0.00
2013-6-12,63,55,48,56,51,48,97,88,67,30.16,30.09,8,1,10,0.28
2013-6-13,68,58,48,55,51,47,97,79,55,30.18,30.14,7,1,12,0.00
2013-6-14,62,55,52,56,52,50,97,89,75,30.24,30.10,6,1,12,0.21
2013-6-15,79,63,47,62,54,46,97,76,49,30.10,29.92,8,1,13,0.00
2013-6-16,76,64,53,60,56,51,94,75,51,30.08,29.98,11,1,18,0.00
2013-6-17,77,65,54,61,56,52,95,73,50,30.08,29.89,8,1,12,0.00
2013-6-18,70,62,56,59,54,49,95,77,51,29.97,29.89,8,1,13,0.03
2013-6-19,64,58,53,58,54,50,96,86,68,29.98,29.89,7,1,12,0.17
2013-6-20,56,54,52,54,52,51,97,96,94,30.09,29.90,12,4,18,0.91
2013-6-21,66,57,52,58,54,52,98,89,69,30.18,30.09,6,0,9,0.01
2013-6-22,74,63,53,62,56,52,97,80,58,30.14,29.88,6,1,10,0.00
2013-6-23,72,63,53,62,58,52,96,83,67,29.89,29.61,6,1,9,0.02
2013-6-24,64,60,58,62,59,56,98,95,85,29.70,29.56,14,1,20,0.53
2013-6-25,74,61,56,63,58,55,98,90,60,29.83,29.69,11,1,17,0.61
2013-6-26,71,61,56,64,59,55,99,94,71,30.09,29.83,7,1,12,0.48
2013-6-27,69,62,58,64,60,57,99,92,77,30.23,30.06,5,0,10,0.06
2013-6-28,78,68,57,68,62,56,98,83,61,30.23,30.05,6,1,12,0.00
2013-6-29,84,72,61,71,64,60,97,80,59,30.11,29.99,9,1,13,0.00
2013-6-30,93,77,62,72,66,60,96,72,42,30.02,29.84,6,1,9,0.00